sensor_id;sensor_type;location;lat;lon;timestamp;temperature;humidity
12893;DHT22;6514;48.606;9.222;2023-05-07T00:00:35;12.60;99.90
12893;DHT22;6514;48.606;9.222;2023-05-07T00:03:02;12.60;99.90
12893;DHT22;6514;48.606;9.222;2023-05-07T00:05:29;12.60;99.90
12893;DHT22;6514;48.606;9.222;2023-05-07T00:07:57;12.60;99.90
12893;DHT22;6514;48.606;9.222;2023-05-07T00:10:25;12.60;99.90
12893;DHT22;6514;48.606;9.222;2023-05-07T00:12:51;12.60;99.90
12893;DHT22;6514;48.606;9.222;2023-05-07T00:15:18;12.60;99.90
12893;DHT22;6514;48.606;9.222;2023-05-07T00:17:45;12.60;99.90
12893;DHT22;6514;48.606;9.222;2023-05-07T00:20:12;12.60;99.90
12893;DHT22;6514;48.606;9.222;2023-05-07T00:22:39;12.60;99.90
12893;DHT22;6514;48.606;9.222;2023-05-07T00:25:08;12.60;99.90
12893;DHT22;6514;48.606;9.222;2023-05-07T00:27:35;12.60;99.90
12893;DHT22;6514;48.606;9.222;2023-05-07T00:30:02;12.60;99.90
12893;DHT22;6514;48.606;9.222;2023-05-07T00:32:29;12.60;99.90
12893;DHT22;6514;48.606;9.222;2023-05-07T00:34:56;12.60;99.90
12893;DHT22;6514;48.606;9.222;2023-05-07T00:37:23;12.60;99.90
12893;DHT22;6514;48.606;9.222;2023-05-07T00:39:50;12.60;99.90
12893;DHT22;6514;48.606;9.222;2023-05-07T00:42:18;12.50;99.90
12893;DHT22;6514;48.606;9.222;2023-05-07T00:44:46;12.50;99.90
12893;DHT22;6514;48.606;9.222;2023-05-07T00:47:13;12.40;99.90
12893;DHT22;6514;48.606;9.222;2023-05-07T00:49:42;12.50;99.90
12893;DHT22;6514;48.606;9.222;2023-05-07T00:52:11;12.40;99.90
12893;DHT22;6514;48.606;9.222;2023-05-07T00:54:40;12.50;99.90
12893;DHT22;6514;48.606;9.222;2023-05-07T00:57:09;12.40;99.90
12893;DHT22;6514;48.606;9.222;2023-05-07T00:59:38;12.40;99.90
12893;DHT22;6514;48.606;9.222;2023-05-07T01:02:06;12.40;99.90
12893;DHT22;6514;48.606;9.222;2023-05-07T01:04:33;12.40;99.90
12893;DHT22;6514;48.606;9.222;2023-05-07T01:07:01;12.40;99.90
12893;DHT22;6514;48.606;9.222;2023-05-07T01:09:28;12.40;99.90
12893;DHT22;6514;48.606;9.222;2023-05-07T01:11:56;12.40;99.90
12893;DHT22;6514;48.606;9.222;2023-05-07T01:14:24;12.40;99.90
12893;DHT22;6514;48.606;9.222;2023-05-07T01:16:52;12.40;99.90
12893;DHT22;6514;48.606;9.222;2023-05-07T01:19:20;12.30;99.90
12893;DHT22;6514;48.606;9.222;2023-05-07T01:21:48;12.30;99.90
12893;DHT22;6514;48.606;9.222;2023-05-07T01:24:16;12.30;99.90
12893;DHT22;6514;48.606;9.222;2023-05-07T01:26:44;12.30;99.90
12893;DHT22;6514;48.606;9.222;2023-05-07T01:29:11;12.30;99.90
12893;DHT22;6514;48.606;9.222;2023-05-07T01:31:39;12.20;99.90
12893;DHT22;6514;48.606;9.222;2023-05-07T01:34:07;12.10;99.90
12893;DHT22;6514;48.606;9.222;2023-05-07T01:36:34;12.10;99.90
12893;DHT22;6514;48.606;9.222;2023-05-07T01:39:02;12.00;99.90
12893;DHT22;6514;48.606;9.222;2023-05-07T01:41:31;12.00;99.90
12893;DHT22;6514;48.606;9.222;2023-05-07T01:43:58;11.90;99.90
12893;DHT22;6514;48.606;9.222;2023-05-07T01:46:26;11.90;99.90
12893;DHT22;6514;48.606;9.222;2023-05-07T01:48:53;11.90;99.90
12893;DHT22;6514;48.606;9.222;2023-05-07T01:51:20;11.90;99.90
12893;DHT22;6514;48.606;9.222;2023-05-07T01:53:47;11.90;99.90
12893;DHT22;6514;48.606;9.222;2023-05-07T01:56:16;11.90;99.90
12893;DHT22;6514;48.606;9.222;2023-05-07T01:58:46;11.80;99.90
12893;DHT22;6514;48.606;9.222;2023-05-07T02:01:13;11.80;99.90
12893;DHT22;6514;48.606;9.222;2023-05-07T02:03:40;11.80;99.90
12893;DHT22;6514;48.606;9.222;2023-05-07T02:06:07;11.80;99.90
12893;DHT22;6514;48.606;9.222;2023-05-07T02:08:34;11.80;99.90
12893;DHT22;6514;48.606;9.222;2023-05-07T02:11:01;11.80;99.90
12893;DHT22;6514;48.606;9.222;2023-05-07T02:13:32;11.80;99.90
12893;DHT22;6514;48.606;9.222;2023-05-07T02:16:01;11.80;99.90
12893;DHT22;6514;48.606;9.222;2023-05-07T02:18:28;11.80;99.90
12893;DHT22;6514;48.606;9.222;2023-05-07T02:20:55;11.90;99.90
12893;DHT22;6514;48.606;9.222;2023-05-07T02:23:21;11.90;99.90
12893;DHT22;6514;48.606;9.222;2023-05-07T02:25:48;11.80;99.90
12893;DHT22;6514;48.606;9.222;2023-05-07T02:28:15;11.80;99.90
12893;DHT22;6514;48.606;9.222;2023-05-07T02:30:42;11.80;99.90
12893;DHT22;6514;48.606;9.222;2023-05-07T02:33:10;11.80;99.90
12893;DHT22;6514;48.606;9.222;2023-05-07T02:35:38;11.70;99.90
12893;DHT22;6514;48.606;9.222;2023-05-07T02:38:04;11.70;99.90
12893;DHT22;6514;48.606;9.222;2023-05-07T02:40:31;11.60;99.90
12893;DHT22;6514;48.606;9.222;2023-05-07T02:43:04;11.60;99.90
12893;DHT22;6514;48.606;9.222;2023-05-07T02:45:31;11.60;99.90
12893;DHT22;6514;48.606;9.222;2023-05-07T02:47:57;11.60;99.90
12893;DHT22;6514;48.606;9.222;2023-05-07T02:50:26;11.50;99.90
12893;DHT22;6514;48.606;9.222;2023-05-07T02:52:53;11.50;99.90
12893;DHT22;6514;48.606;9.222;2023-05-07T02:55:20;11.40;99.90
12893;DHT22;6514;48.606;9.222;2023-05-07T02:57:46;11.40;99.90
12893;DHT22;6514;48.606;9.222;2023-05-07T03:00:14;11.40;99.90
12893;DHT22;6514;48.606;9.222;2023-05-07T03:02:42;11.30;99.90
12893;DHT22;6514;48.606;9.222;2023-05-07T03:05:09;11.30;99.90
12893;DHT22;6514;48.606;9.222;2023-05-07T03:07:37;11.30;99.90
12893;DHT22;6514;48.606;9.222;2023-05-07T03:10:05;11.20;99.90
12893;DHT22;6514;48.606;9.222;2023-05-07T03:12:32;11.20;99.90
12893;DHT22;6514;48.606;9.222;2023-05-07T03:14:59;11.20;99.90
12893;DHT22;6514;48.606;9.222;2023-05-07T03:17:26;11.10;99.90
12893;DHT22;6514;48.606;9.222;2023-05-07T03:19:53;11.10;99.90
12893;DHT22;6514;48.606;9.222;2023-05-07T03:22:20;11.10;99.90
12893;DHT22;6514;48.606;9.222;2023-05-07T03:24:48;11.10;99.90
12893;DHT22;6514;48.606;9.222;2023-05-07T03:27:15;11.00;99.90
12893;DHT22;6514;48.606;9.222;2023-05-07T03:29:42;10.90;99.90
12893;DHT22;6514;48.606;9.222;2023-05-07T03:32:09;10.90;99.90
12893;DHT22;6514;48.606;9.222;2023-05-07T03:34:35;10.80;99.90
12893;DHT22;6514;48.606;9.222;2023-05-07T03:37:02;10.70;99.90
12893;DHT22;6514;48.606;9.222;2023-05-07T03:39:29;10.60;99.90
12893;DHT22;6514;48.606;9.222;2023-05-07T03:41:59;10.50;99.90
12893;DHT22;6514;48.606;9.222;2023-05-07T03:44:26;10.50;99.90
12893;DHT22;6514;48.606;9.222;2023-05-07T03:46:53;10.40;99.90
12893;DHT22;6514;48.606;9.222;2023-05-07T03:49:20;10.50;99.90
12893;DHT22;6514;48.606;9.222;2023-05-07T03:51:47;10.40;99.90
12893;DHT22;6514;48.606;9.222;2023-05-07T03:54:14;10.30;99.90
12893;DHT22;6514;48.606;9.222;2023-05-07T03:56:41;10.30;99.90
12893;DHT22;6514;48.606;9.222;2023-05-07T03:59:09;10.30;99.90
12893;DHT22;6514;48.606;9.222;2023-05-07T04:01:36;10.20;99.90
12893;DHT22;6514;48.606;9.222;2023-05-07T04:04:03;10.10;99.90
12893;DHT22;6514;48.606;9.222;2023-05-07T04:06:30;10.10;99.90
12893;DHT22;6514;48.606;9.222;2023-05-07T04:08:57;10.10;99.90
12893;DHT22;6514;48.606;9.222;2023-05-07T04:11:25;10.10;99.90
12893;DHT22;6514;48.606;9.222;2023-05-07T04:13:52;10.00;99.90
12893;DHT22;6514;48.606;9.222;2023-05-07T04:16:20;10.10;99.90
12893;DHT22;6514;48.606;9.222;2023-05-07T04:18:47;10.10;99.90
12893;DHT22;6514;48.606;9.222;2023-05-07T04:21:14;10.10;99.90
12893;DHT22;6514;48.606;9.222;2023-05-07T04:23:42;10.10;99.90
12893;DHT22;6514;48.606;9.222;2023-05-07T04:26:09;10.10;99.90
12893;DHT22;6514;48.606;9.222;2023-05-07T04:28:36;10.20;99.90
12893;DHT22;6514;48.606;9.222;2023-05-07T04:31:03;10.20;99.90
12893;DHT22;6514;48.606;9.222;2023-05-07T04:33:31;10.20;99.90
12893;DHT22;6514;48.606;9.222;2023-05-07T04:36:00;10.30;99.90
12893;DHT22;6514;48.606;9.222;2023-05-07T04:38:29;10.30;99.90
12893;DHT22;6514;48.606;9.222;2023-05-07T04:40:56;10.40;99.90
12893;DHT22;6514;48.606;9.222;2023-05-07T04:43:23;10.40;99.90
12893;DHT22;6514;48.606;9.222;2023-05-07T04:45:51;10.50;99.90
12893;DHT22;6514;48.606;9.222;2023-05-07T04:48:18;10.60;99.90
12893;DHT22;6514;48.606;9.222;2023-05-07T04:50:48;10.70;99.90
12893;DHT22;6514;48.606;9.222;2023-05-07T04:53:16;10.80;99.90
12893;DHT22;6514;48.606;9.222;2023-05-07T04:55:43;10.90;99.90
12893;DHT22;6514;48.606;9.222;2023-05-07T04:58:10;10.90;99.90
12893;DHT22;6514;48.606;9.222;2023-05-07T05:00:37;11.00;99.90
12893;DHT22;6514;48.606;9.222;2023-05-07T05:03:05;11.00;99.90
12893;DHT22;6514;48.606;9.222;2023-05-07T05:05:32;11.10;99.90
12893;DHT22;6514;48.606;9.222;2023-05-07T05:08:01;11.20;99.90
12893;DHT22;6514;48.606;9.222;2023-05-07T05:10:27;11.20;99.90
12893;DHT22;6514;48.606;9.222;2023-05-07T05:12:54;11.30;99.90
12893;DHT22;6514;48.606;9.222;2023-05-07T05:15:21;11.30;99.90
12893;DHT22;6514;48.606;9.222;2023-05-07T05:17:48;11.40;99.90
12893;DHT22;6514;48.606;9.222;2023-05-07T05:20:15;11.50;99.90
12893;DHT22;6514;48.606;9.222;2023-05-07T05:22:42;11.60;99.90
12893;DHT22;6514;48.606;9.222;2023-05-07T05:25:10;11.70;99.90
12893;DHT22;6514;48.606;9.222;2023-05-07T05:27:37;11.90;99.90
12893;DHT22;6514;48.606;9.222;2023-05-07T05:30:05;12.00;99.90
12893;DHT22;6514;48.606;9.222;2023-05-07T05:32:32;12.20;99.90
12893;DHT22;6514;48.606;9.222;2023-05-07T05:34:59;12.40;99.90
12893;DHT22;6514;48.606;9.222;2023-05-07T05:37:26;12.50;99.90
12893;DHT22;6514;48.606;9.222;2023-05-07T05:39:53;12.70;99.90
12893;DHT22;6514;48.606;9.222;2023-05-07T05:42:22;12.90;99.90
12893;DHT22;6514;48.606;9.222;2023-05-07T05:44:49;13.10;99.90
12893;DHT22;6514;48.606;9.222;2023-05-07T05:47:16;13.30;99.90
12893;DHT22;6514;48.606;9.222;2023-05-07T05:49:43;13.60;99.90
12893;DHT22;6514;48.606;9.222;2023-05-07T05:52:12;14.00;99.90
12893;DHT22;6514;48.606;9.222;2023-05-07T05:54:40;14.30;99.90
12893;DHT22;6514;48.606;9.222;2023-05-07T05:57:07;14.70;99.90
12893;DHT22;6514;48.606;9.222;2023-05-07T05:59:35;15.00;99.90
12893;DHT22;6514;48.606;9.222;2023-05-07T06:02:02;15.40;99.90
12893;DHT22;6514;48.606;9.222;2023-05-07T06:04:29;15.80;99.90
12893;DHT22;6514;48.606;9.222;2023-05-07T06:06:56;16.20;99.90
12893;DHT22;6514;48.606;9.222;2023-05-07T06:09:23;16.50;99.90
12893;DHT22;6514;48.606;9.222;2023-05-07T06:11:50;16.90;99.90
12893;DHT22;6514;48.606;9.222;2023-05-07T06:14:17;17.30;99.90
12893;DHT22;6514;48.606;9.222;2023-05-07T06:16:45;17.70;99.90
12893;DHT22;6514;48.606;9.222;2023-05-07T06:19:12;18.00;99.90
12893;DHT22;6514;48.606;9.222;2023-05-07T06:21:39;18.30;99.90
12893;DHT22;6514;48.606;9.222;2023-05-07T06:24:07;18.50;99.90
12893;DHT22;6514;48.606;9.222;2023-05-07T06:26:34;18.80;99.90
12893;DHT22;6514;48.606;9.222;2023-05-07T06:29:01;19.10;99.90
12893;DHT22;6514;48.606;9.222;2023-05-07T06:31:30;19.40;99.90
12893;DHT22;6514;48.606;9.222;2023-05-07T06:33:58;19.50;99.90
12893;DHT22;6514;48.606;9.222;2023-05-07T06:36:27;19.80;99.90
12893;DHT22;6514;48.606;9.222;2023-05-07T06:38:54;20.10;99.90
12893;DHT22;6514;48.606;9.222;2023-05-07T06:41:21;20.40;99.90
12893;DHT22;6514;48.606;9.222;2023-05-07T06:43:48;20.60;99.90
12893;DHT22;6514;48.606;9.222;2023-05-07T06:46:15;20.80;99.90
12893;DHT22;6514;48.606;9.222;2023-05-07T06:48:42;21.00;99.90
12893;DHT22;6514;48.606;9.222;2023-05-07T06:51:10;21.20;99.90
12893;DHT22;6514;48.606;9.222;2023-05-07T06:53:37;21.40;99.90
12893;DHT22;6514;48.606;9.222;2023-05-07T06:56:04;21.40;99.90
12893;DHT22;6514;48.606;9.222;2023-05-07T06:58:31;21.60;99.90
12893;DHT22;6514;48.606;9.222;2023-05-07T07:00:58;21.60;99.90
12893;DHT22;6514;48.606;9.222;2023-05-07T07:03:25;21.60;99.90
12893;DHT22;6514;48.606;9.222;2023-05-07T07:05:52;21.70;99.90
12893;DHT22;6514;48.606;9.222;2023-05-07T07:08:21;21.60;99.90
12893;DHT22;6514;48.606;9.222;2023-05-07T07:10:48;21.60;99.90
12893;DHT22;6514;48.606;9.222;2023-05-07T07:13:15;21.60;99.90
12893;DHT22;6514;48.606;9.222;2023-05-07T07:15:43;21.40;99.90
12893;DHT22;6514;48.606;9.222;2023-05-07T07:18:10;21.20;99.90
12893;DHT22;6514;48.606;9.222;2023-05-07T07:20:37;21.30;99.90
12893;DHT22;6514;48.606;9.222;2023-05-07T07:23:04;21.60;99.90
12893;DHT22;6514;48.606;9.222;2023-05-07T07:25:32;21.80;99.90
12893;DHT22;6514;48.606;9.222;2023-05-07T07:27:59;22.10;99.90
12893;DHT22;6514;48.606;9.222;2023-05-07T07:30:26;22.40;99.90
12893;DHT22;6514;48.606;9.222;2023-05-07T07:32:53;22.50;99.90
12893;DHT22;6514;48.606;9.222;2023-05-07T07:35:20;22.70;99.90
12893;DHT22;6514;48.606;9.222;2023-05-07T07:37:48;23.00;99.90
12893;DHT22;6514;48.606;9.222;2023-05-07T07:40:15;23.30;99.90
12893;DHT22;6514;48.606;9.222;2023-05-07T07:42:43;23.60;99.90
12893;DHT22;6514;48.606;9.222;2023-05-07T07:45:10;23.50;99.90
12893;DHT22;6514;48.606;9.222;2023-05-07T07:47:38;23.50;99.90
12893;DHT22;6514;48.606;9.222;2023-05-07T07:50:05;23.60;99.90
12893;DHT22;6514;48.606;9.222;2023-05-07T07:52:33;23.60;99.90
12893;DHT22;6514;48.606;9.222;2023-05-07T07:55:00;23.90;99.90
12893;DHT22;6514;48.606;9.222;2023-05-07T07:57:27;24.10;99.90
12893;DHT22;6514;48.606;9.222;2023-05-07T07:59:55;24.20;99.90
12893;DHT22;6514;48.606;9.222;2023-05-07T08:02:22;24.30;99.90
12893;DHT22;6514;48.606;9.222;2023-05-07T08:04:49;24.60;99.90
12893;DHT22;6514;48.606;9.222;2023-05-07T08:07:15;25.00;99.90
12893;DHT22;6514;48.606;9.222;2023-05-07T08:09:44;25.30;99.90
12893;DHT22;6514;48.606;9.222;2023-05-07T08:12:11;25.60;99.90
12893;DHT22;6514;48.606;9.222;2023-05-07T08:14:38;25.50;99.90
12893;DHT22;6514;48.606;9.222;2023-05-07T08:17:06;25.40;99.90
12893;DHT22;6514;48.606;9.222;2023-05-07T08:19:35;25.50;99.90
12893;DHT22;6514;48.606;9.222;2023-05-07T08:22:02;25.40;99.90
12893;DHT22;6514;48.606;9.222;2023-05-07T08:24:29;25.40;99.90
12893;DHT22;6514;48.606;9.222;2023-05-07T08:26:56;25.40;99.90
12893;DHT22;6514;48.606;9.222;2023-05-07T08:29:23;25.40;99.90
12893;DHT22;6514;48.606;9.222;2023-05-07T08:31:50;25.20;99.90
12893;DHT22;6514;48.606;9.222;2023-05-07T08:34:18;25.40;99.90
12893;DHT22;6514;48.606;9.222;2023-05-07T08:36:45;26.00;99.90
12893;DHT22;6514;48.606;9.222;2023-05-07T08:39:14;26.20;99.90
12893;DHT22;6514;48.606;9.222;2023-05-07T08:41:44;26.70;99.90
12893;DHT22;6514;48.606;9.222;2023-05-07T08:44:12;26.80;99.90
12893;DHT22;6514;48.606;9.222;2023-05-07T08:46:41;26.90;99.90
12893;DHT22;6514;48.606;9.222;2023-05-07T08:49:09;26.90;99.90
12893;DHT22;6514;48.606;9.222;2023-05-07T08:51:37;27.10;99.90
12893;DHT22;6514;48.606;9.222;2023-05-07T08:54:04;27.10;99.90
12893;DHT22;6514;48.606;9.222;2023-05-07T08:56:32;27.40;99.90
12893;DHT22;6514;48.606;9.222;2023-05-07T08:58:59;27.50;99.90
12893;DHT22;6514;48.606;9.222;2023-05-07T09:01:26;27.80;99.90
12893;DHT22;6514;48.606;9.222;2023-05-07T09:03:53;27.80;99.90
12893;DHT22;6514;48.606;9.222;2023-05-07T09:06:20;27.70;99.90
12893;DHT22;6514;48.606;9.222;2023-05-07T09:08:53;27.90;99.90
12893;DHT22;6514;48.606;9.222;2023-05-07T09:11:20;28.40;99.90
12893;DHT22;6514;48.606;9.222;2023-05-07T09:13:48;28.70;99.90
12893;DHT22;6514;48.606;9.222;2023-05-07T09:16:15;28.60;99.90
12893;DHT22;6514;48.606;9.222;2023-05-07T09:18:43;28.70;99.90
12893;DHT22;6514;48.606;9.222;2023-05-07T09:21:10;28.70;99.90
12893;DHT22;6514;48.606;9.222;2023-05-07T09:23:37;28.80;99.90
12893;DHT22;6514;48.606;9.222;2023-05-07T09:26:06;28.50;99.90
12893;DHT22;6514;48.606;9.222;2023-05-07T09:28:38;28.20;99.90
12893;DHT22;6514;48.606;9.222;2023-05-07T09:31:06;28.20;99.90
12893;DHT22;6514;48.606;9.222;2023-05-07T09:33:33;28.30;99.90
12893;DHT22;6514;48.606;9.222;2023-05-07T09:36:02;28.30;99.90
12893;DHT22;6514;48.606;9.222;2023-05-07T09:38:30;28.10;99.90
12893;DHT22;6514;48.606;9.222;2023-05-07T09:41:10;28.20;99.90
12893;DHT22;6514;48.606;9.222;2023-05-07T09:43:38;28.10;99.90
12893;DHT22;6514;48.606;9.222;2023-05-07T09:46:12;28.30;99.90
12893;DHT22;6514;48.606;9.222;2023-05-07T09:48:40;28.30;99.90
12893;DHT22;6514;48.606;9.222;2023-05-07T09:51:15;28.20;99.90
12893;DHT22;6514;48.606;9.222;2023-05-07T09:53:45;28.40;99.90
12893;DHT22;6514;48.606;9.222;2023-05-07T09:56:14;28.40;99.90
12893;DHT22;6514;48.606;9.222;2023-05-07T09:58:42;28.70;99.90
12893;DHT22;6514;48.606;9.222;2023-05-07T10:01:10;29.10;99.90
12893;DHT22;6514;48.606;9.222;2023-05-07T10:03:40;29.30;99.90
12893;DHT22;6514;48.606;9.222;2023-05-07T10:06:08;29.40;99.90
12893;DHT22;6514;48.606;9.222;2023-05-07T10:08:36;29.40;99.90
12893;DHT22;6514;48.606;9.222;2023-05-07T10:11:03;29.60;99.90
12893;DHT22;6514;48.606;9.222;2023-05-07T10:13:32;29.90;99.90
12893;DHT22;6514;48.606;9.222;2023-05-07T10:16:02;30.10;99.90
12893;DHT22;6514;48.606;9.222;2023-05-07T10:18:30;30.30;99.90
12893;DHT22;6514;48.606;9.222;2023-05-07T10:21:02;30.50;99.90
12893;DHT22;6514;48.606;9.222;2023-05-07T10:23:32;30.60;99.90
12893;DHT22;6514;48.606;9.222;2023-05-07T10:26:00;30.30;99.90
12893;DHT22;6514;48.606;9.222;2023-05-07T10:28:30;30.20;99.90
12893;DHT22;6514;48.606;9.222;2023-05-07T10:31:11;30.10;99.90
12893;DHT22;6514;48.606;9.222;2023-05-07T10:33:43;30.30;99.90
12893;DHT22;6514;48.606;9.222;2023-05-07T10:36:11;30.50;99.90
12893;DHT22;6514;48.606;9.222;2023-05-07T10:38:38;30.10;99.90
12893;DHT22;6514;48.606;9.222;2023-05-07T10:41:06;30.20;99.90
12893;DHT22;6514;48.606;9.222;2023-05-07T10:43:40;30.40;99.90
12893;DHT22;6514;48.606;9.222;2023-05-07T10:46:15;30.10;99.90
12893;DHT22;6514;48.606;9.222;2023-05-07T10:49:06;30.20;99.90
12893;DHT22;6514;48.606;9.222;2023-05-07T10:51:34;30.10;99.90
12893;DHT22;6514;48.606;9.222;2023-05-07T10:54:21;30.40;99.90
12893;DHT22;6514;48.606;9.222;2023-05-07T10:56:49;30.20;99.90
12893;DHT22;6514;48.606;9.222;2023-05-07T10:59:35;30.60;99.90
12893;DHT22;6514;48.606;9.222;2023-05-07T11:02:09;31.00;99.90
12893;DHT22;6514;48.606;9.222;2023-05-07T11:04:37;31.00;99.90
12893;DHT22;6514;48.606;9.222;2023-05-07T11:10:03;31.20;99.90
12893;DHT22;6514;48.606;9.222;2023-05-07T11:12:53;31.00;99.90
12893;DHT22;6514;48.606;9.222;2023-05-07T11:15:41;31.30;99.90
12893;DHT22;6514;48.606;9.222;2023-05-07T11:18:11;31.60;99.90
12893;DHT22;6514;48.606;9.222;2023-05-07T11:20:52;31.70;99.80
12893;DHT22;6514;48.606;9.222;2023-05-07T11:23:56;31.40;99.90
12893;DHT22;6514;48.606;9.222;2023-05-07T11:26:28;31.00;99.90
12893;DHT22;6514;48.606;9.222;2023-05-07T11:28:55;31.20;99.90
12893;DHT22;6514;48.606;9.222;2023-05-07T11:31:24;31.10;99.90
12893;DHT22;6514;48.606;9.222;2023-05-07T11:33:53;31.30;99.90
12893;DHT22;6514;48.606;9.222;2023-05-07T11:36:22;31.50;99.80
12893;DHT22;6514;48.606;9.222;2023-05-07T11:38:49;31.80;99.60
12893;DHT22;6514;48.606;9.222;2023-05-07T11:41:16;32.10;99.90
12893;DHT22;6514;48.606;9.222;2023-05-07T11:43:58;32.10;98.90
12893;DHT22;6514;48.606;9.222;2023-05-07T11:46:26;32.20;99.90
12893;DHT22;6514;48.606;9.222;2023-05-07T11:48:55;32.10;99.00
12893;DHT22;6514;48.606;9.222;2023-05-07T11:51:23;31.90;98.70
12893;DHT22;6514;48.606;9.222;2023-05-07T11:53:52;31.80;98.60
12893;DHT22;6514;48.606;9.222;2023-05-07T11:56:19;31.10;98.90
12893;DHT22;6514;48.606;9.222;2023-05-07T11:58:47;30.70;99.00
12893;DHT22;6514;48.606;9.222;2023-05-07T12:01:15;30.10;98.80
12893;DHT22;6514;48.606;9.222;2023-05-07T12:03:45;29.70;99.90
12893;DHT22;6514;48.606;9.222;2023-05-07T12:06:15;29.10;99.90
12893;DHT22;6514;48.606;9.222;2023-05-07T12:08:43;28.30;99.90
12893;DHT22;6514;48.606;9.222;2023-05-07T12:11:14;27.60;99.90
12893;DHT22;6514;48.606;9.222;2023-05-07T12:13:43;26.60;99.90
12893;DHT22;6514;48.606;9.222;2023-05-07T12:16:10;25.90;99.90
12893;DHT22;6514;48.606;9.222;2023-05-07T12:18:37;25.00;99.90
12893;DHT22;6514;48.606;9.222;2023-05-07T12:21:05;24.30;99.90
12893;DHT22;6514;48.606;9.222;2023-05-07T12:23:35;23.80;99.90
12893;DHT22;6514;48.606;9.222;2023-05-07T12:26:03;23.30;99.90
12893;DHT22;6514;48.606;9.222;2023-05-07T12:28:30;23.10;99.90
12893;DHT22;6514;48.606;9.222;2023-05-07T12:30:57;22.80;99.90
12893;DHT22;6514;48.606;9.222;2023-05-07T12:33:26;22.60;99.90
12893;DHT22;6514;48.606;9.222;2023-05-07T12:35:55;22.40;99.90
12893;DHT22;6514;48.606;9.222;2023-05-07T12:38:22;22.10;99.90
12893;DHT22;6514;48.606;9.222;2023-05-07T12:40:53;22.00;99.90
12893;DHT22;6514;48.606;9.222;2023-05-07T12:43:23;21.70;99.90
12893;DHT22;6514;48.606;9.222;2023-05-07T12:45:52;21.50;99.90
12893;DHT22;6514;48.606;9.222;2023-05-07T12:48:20;21.30;99.90
12893;DHT22;6514;48.606;9.222;2023-05-07T12:50:49;21.10;99.90
12893;DHT22;6514;48.606;9.222;2023-05-07T12:53:17;20.90;99.90
12893;DHT22;6514;48.606;9.222;2023-05-07T12:55:45;20.60;99.90
12893;DHT22;6514;48.606;9.222;2023-05-07T12:58:19;20.50;99.90
12893;DHT22;6514;48.606;9.222;2023-05-07T13:00:48;20.30;99.90
12893;DHT22;6514;48.606;9.222;2023-05-07T13:03:22;20.10;99.90
12893;DHT22;6514;48.606;9.222;2023-05-07T13:05:49;19.90;99.90
12893;DHT22;6514;48.606;9.222;2023-05-07T13:08:28;19.70;99.90
12893;DHT22;6514;48.606;9.222;2023-05-07T13:10:55;19.50;99.90
12893;DHT22;6514;48.606;9.222;2023-05-07T13:13:23;19.30;99.90
12893;DHT22;6514;48.606;9.222;2023-05-07T13:15:50;19.10;99.90
12893;DHT22;6514;48.606;9.222;2023-05-07T13:18:17;18.90;99.90
12893;DHT22;6514;48.606;9.222;2023-05-07T13:20:44;18.70;99.90
12893;DHT22;6514;48.606;9.222;2023-05-07T13:23:11;18.50;99.90
12893;DHT22;6514;48.606;9.222;2023-05-07T13:25:38;18.20;99.90
12893;DHT22;6514;48.606;9.222;2023-05-07T13:28:05;17.90;99.90
12893;DHT22;6514;48.606;9.222;2023-05-07T13:30:33;17.60;99.90
12893;DHT22;6514;48.606;9.222;2023-05-07T13:33:00;17.20;99.90
12893;DHT22;6514;48.606;9.222;2023-05-07T13:35:27;17.00;99.90
12893;DHT22;6514;48.606;9.222;2023-05-07T13:37:54;16.60;99.90
12893;DHT22;6514;48.606;9.222;2023-05-07T13:40:22;16.30;99.90
12893;DHT22;6514;48.606;9.222;2023-05-07T13:42:48;16.20;99.90
12893;DHT22;6514;48.606;9.222;2023-05-07T13:45:16;16.00;99.90
12893;DHT22;6514;48.606;9.222;2023-05-07T13:47:44;15.80;99.90
12893;DHT22;6514;48.606;9.222;2023-05-07T13:50:11;15.70;99.90
12893;DHT22;6514;48.606;9.222;2023-05-07T13:52:41;15.60;99.90
12893;DHT22;6514;48.606;9.222;2023-05-07T13:55:09;15.60;99.90
12893;DHT22;6514;48.606;9.222;2023-05-07T13:57:36;15.50;99.90
12893;DHT22;6514;48.606;9.222;2023-05-07T14:00:04;15.50;99.90
12893;DHT22;6514;48.606;9.222;2023-05-07T14:02:32;15.40;99.90
12893;DHT22;6514;48.606;9.222;2023-05-07T14:05:00;15.40;99.90
12893;DHT22;6514;48.606;9.222;2023-05-07T14:07:27;15.30;99.90
12893;DHT22;6514;48.606;9.222;2023-05-07T14:09:54;15.30;99.90
12893;DHT22;6514;48.606;9.222;2023-05-07T14:12:21;15.40;99.90
12893;DHT22;6514;48.606;9.222;2023-05-07T14:14:48;15.50;99.90
12893;DHT22;6514;48.606;9.222;2023-05-07T14:17:16;15.40;99.90
12893;DHT22;6514;48.606;9.222;2023-05-07T14:19:42;15.40;99.90
12893;DHT22;6514;48.606;9.222;2023-05-07T14:22:12;15.30;99.90
12893;DHT22;6514;48.606;9.222;2023-05-07T14:24:40;15.20;99.90
12893;DHT22;6514;48.606;9.222;2023-05-07T14:27:07;15.20;99.90
12893;DHT22;6514;48.606;9.222;2023-05-07T14:29:33;15.20;99.90
12893;DHT22;6514;48.606;9.222;2023-05-07T14:32:01;15.20;99.90
12893;DHT22;6514;48.606;9.222;2023-05-07T14:34:28;15.20;99.90
12893;DHT22;6514;48.606;9.222;2023-05-07T14:36:55;15.20;99.90
12893;DHT22;6514;48.606;9.222;2023-05-07T14:39:24;15.30;99.90
12893;DHT22;6514;48.606;9.222;2023-05-07T14:41:51;15.40;99.90
12893;DHT22;6514;48.606;9.222;2023-05-07T14:44:20;15.40;99.90
12893;DHT22;6514;48.606;9.222;2023-05-07T14:46:46;15.50;99.90
12893;DHT22;6514;48.606;9.222;2023-05-07T14:49:14;15.60;99.90
12893;DHT22;6514;48.606;9.222;2023-05-07T14:51:43;15.70;99.90
12893;DHT22;6514;48.606;9.222;2023-05-07T14:54:10;15.60;99.90
12893;DHT22;6514;48.606;9.222;2023-05-07T14:56:39;15.60;99.90
12893;DHT22;6514;48.606;9.222;2023-05-07T14:59:07;15.60;99.90
12893;DHT22;6514;48.606;9.222;2023-05-07T15:01:34;15.50;99.90
12893;DHT22;6514;48.606;9.222;2023-05-07T15:04:03;15.50;99.90
12893;DHT22;6514;48.606;9.222;2023-05-07T15:06:30;15.60;99.90
12893;DHT22;6514;48.606;9.222;2023-05-07T15:08:56;15.60;99.90
12893;DHT22;6514;48.606;9.222;2023-05-07T15:11:23;15.70;99.90
12893;DHT22;6514;48.606;9.222;2023-05-07T15:13:52;15.80;99.90
12893;DHT22;6514;48.606;9.222;2023-05-07T15:16:18;15.90;99.90
12893;DHT22;6514;48.606;9.222;2023-05-07T15:18:45;16.00;99.90
12893;DHT22;6514;48.606;9.222;2023-05-07T15:21:13;16.10;99.90
12893;DHT22;6514;48.606;9.222;2023-05-07T15:23:40;16.20;99.90
12893;DHT22;6514;48.606;9.222;2023-05-07T15:26:07;16.20;99.90
12893;DHT22;6514;48.606;9.222;2023-05-07T15:28:34;16.30;99.90
12893;DHT22;6514;48.606;9.222;2023-05-07T15:31:02;16.30;99.90
12893;DHT22;6514;48.606;9.222;2023-05-07T15:33:30;16.20;99.90
12893;DHT22;6514;48.606;9.222;2023-05-07T15:35:57;16.40;99.90
12893;DHT22;6514;48.606;9.222;2023-05-07T15:38:25;16.50;99.90
12893;DHT22;6514;48.606;9.222;2023-05-07T15:40:52;16.50;99.90
12893;DHT22;6514;48.606;9.222;2023-05-07T15:43:20;16.60;99.90
12893;DHT22;6514;48.606;9.222;2023-05-07T15:45:47;16.70;99.90
12893;DHT22;6514;48.606;9.222;2023-05-07T15:48:15;16.80;99.90
12893;DHT22;6514;48.606;9.222;2023-05-07T15:50:42;16.90;99.90
12893;DHT22;6514;48.606;9.222;2023-05-07T15:53:09;17.00;99.90